createdAt,value
2016-06-21T00:00:24.949Z,0
2016-06-21T00:01:24.302Z,0
2016-06-21T00:02:25.527Z,0
2016-06-21T00:03:24.912Z,0
2016-06-21T00:04:24.342Z,0
2016-06-21T00:05:23.742Z,0
2016-06-21T00:06:23.736Z,0
2016-06-21T00:07:25.030Z,0
2016-06-21T00:08:23.203Z,0
2016-06-21T00:09:24.397Z,0
2016-06-21T00:10:24.389Z,0
2016-06-21T00:11:25.009Z,0
2016-06-21T00:12:23.811Z,0
2016-06-21T00:13:23.813Z,0
2016-06-21T00:14:25.029Z,0
2016-06-21T00:15:24.466Z,0
2016-06-21T00:16:23.851Z,0
2016-06-21T00:17:23.313Z,0
2016-06-21T00:18:23.275Z,0
2016-06-21T00:19:24.481Z,0
2016-06-21T00:20:23.317Z,0
2016-06-21T00:21:23.910Z,0
2016-06-21T00:22:23.919Z,0
2016-06-21T00:23:24.556Z,0
2016-06-21T00:24:24.541Z,0
2016-06-21T00:25:23.962Z,0
2016-06-21T00:26:25.159Z,0
2016-06-21T00:27:25.163Z,0
2016-06-21T00:28:24.572Z,0
2016-06-21T00:29:25.197Z,0
2016-06-21T00:30:23.979Z,0
2016-06-21T00:31:24.009Z,0
2016-06-21T00:32:24.043Z,0
2016-06-21T00:33:25.856Z,0
2016-06-21T00:34:24.647Z,0
2016-06-21T00:35:24.070Z,0
2016-06-21T00:36:24.058Z,0
2016-06-21T00:37:25.914Z,0
2016-06-21T00:38:24.093Z,0
2016-06-21T00:39:25.313Z,0
2016-06-21T00:40:25.922Z,0
2016-06-21T00:41:24.737Z,0
2016-06-21T00:42:25.328Z,0
2016-06-21T00:43:24.728Z,0
2016-06-21T00:44:24.158Z,0
2016-06-21T00:45:23.563Z,0
2016-06-21T00:46:25.959Z,0
2016-06-21T00:47:24.187Z,0
2016-06-21T00:48:24.776Z,0
2016-06-21T00:49:24.799Z,0
2016-06-21T00:50:24.805Z,0
2016-06-21T00:51:24.212Z,0
2016-06-21T00:52:25.406Z,0
2016-06-21T00:53:26.033Z,0
2016-06-21T00:54:24.837Z,0
2016-06-21T00:55:24.850Z,0
2016-06-21T00:56:25.492Z,0
2016-06-21T00:57:24.873Z,0
2016-06-21T00:58:24.889Z,0
2016-06-21T00:59:25.492Z,0
2016-06-21T01:00:24.342Z,0
2016-06-21T01:01:24.914Z,0
2016-06-21T01:02:24.335Z,0
2016-06-21T01:03:25.534Z,0
2016-06-21T01:04:24.359Z,0
2016-06-21T01:05:24.942Z,0
2016-06-21T01:06:25.585Z,0
2016-06-21T01:07:25.174Z,0
2016-06-21T01:08:24.402Z,0
2016-06-21T01:09:25.013Z,0
2016-06-21T01:10:25.003Z,0
2016-06-21T01:11:25.010Z,0
2016-06-21T01:12:23.866Z,0
2016-06-21T01:13:24.437Z,0
2016-06-21T01:14:25.664Z,0
2016-06-21T01:15:24.455Z,0
2016-06-21T01:16:26.274Z,0
2016-06-21T01:17:25.077Z,0
2016-06-21T01:18:24.505Z,0
2016-06-21T01:19:25.691Z,0
2016-06-21T01:20:25.707Z,0
2016-06-21T01:21:24.554Z,0
2016-06-21T01:22:25.133Z,0
2016-06-21T01:23:24.529Z,0
2016-06-21T01:24:25.760Z,0
2016-06-21T01:25:24.560Z,0
2016-06-21T01:26:25.765Z,0
2016-06-21T01:27:25.769Z,0
2016-06-21T01:28:23.978Z,0
2016-06-21T01:29:24.578Z,0
2016-06-21T01:30:25.179Z,0
2016-06-21T01:31:25.818Z,0
2016-06-21T01:32:25.227Z,0
2016-06-21T01:33:25.286Z,0
2016-06-21T01:34:26.436Z,0
2016-06-21T01:35:25.866Z,0
2016-06-21T01:36:24.056Z,0
2016-06-21T01:37:25.869Z,0
2016-06-21T01:38:25.886Z,0
2016-06-21T01:39:25.880Z,0
2016-06-21T01:40:24.721Z,0
2016-06-21T01:41:24.718Z,0
2016-06-21T01:42:24.727Z,0
2016-06-21T01:43:24.762Z,0
2016-06-21T01:44:26.542Z,0
2016-06-21T01:45:26.559Z,0
2016-06-21T01:46:25.349Z,0
2016-06-21T01:47:24.192Z,0
2016-06-21T01:48:25.409Z,0
2016-06-21T01:49:24.194Z,0
2016-06-21T01:50:25.396Z,0
2016-06-21T01:51:26.616Z,0
2016-06-21T01:52:26.033Z,0
2016-06-21T01:53:24.826Z,0
2016-06-21T01:54:25.451Z,0
2016-06-21T01:55:25.463Z,0
2016-06-21T01:56:26.080Z,0
2016-06-21T01:57:26.067Z,0
2016-06-21T01:58:25.494Z,0
2016-06-21T01:59:24.304Z,0
2016-06-21T02:00:25.510Z,0
2016-06-21T02:01:25.503Z,0
2016-06-21T02:02:24.323Z,0
2016-06-21T02:03:26.125Z,0
2016-06-21T02:04:24.951Z,0
2016-06-21T02:05:24.957Z,0
2016-06-21T02:06:25.566Z,0
2016-06-21T02:07:26.774Z,0
2016-06-21T02:08:26.801Z,0
2016-06-21T02:09:25.578Z,0
2016-06-21T02:10:25.021Z,0
2016-06-21T02:11:25.624Z,0
2016-06-21T02:12:26.823Z,0
2016-06-21T02:13:25.614Z,0
2016-06-21T02:14:25.651Z,0
2016-06-21T02:15:26.304Z,0
2016-06-21T02:16:26.286Z,0
2016-06-21T02:17:26.277Z,0
2016-06-21T02:18:25.700Z,0
2016-06-21T02:19:25.106Z,0
2016-06-21T02:20:25.113Z,0
2016-06-21T02:21:25.747Z,0
2016-06-21T02:22:26.313Z,0
2016-06-21T02:23:25.147Z,0
2016-06-21T02:24:26.347Z,0
2016-06-21T02:25:25.766Z,0
2016-06-21T02:26:26.379Z,0
2016-06-21T02:27:25.178Z,0
2016-06-21T02:28:24.584Z,0
2016-06-21T02:29:25.202Z,0
2016-06-21T02:30:24.632Z,0
2016-06-21T02:31:25.233Z,0
2016-06-21T02:32:25.826Z,0
2016-06-21T02:33:24.650Z,0
2016-06-21T02:34:25.257Z,0
2016-06-21T02:35:25.250Z,0
2016-06-21T02:36:25.309Z,0
2016-06-21T02:37:26.494Z,0
2016-06-21T02:38:25.304Z,0
2016-06-21T02:39:25.306Z,0
2016-06-21T02:40:26.507Z,0
2016-06-21T02:41:26.528Z,0
2016-06-21T02:42:25.923Z,0
2016-06-21T02:43:26.547Z,0
2016-06-21T02:44:24.771Z,0
2016-06-21T02:45:26.577Z,0
2016-06-21T02:46:25.964Z,0
2016-06-21T02:47:26.600Z,0
2016-06-21T02:48:25.998Z,0
2016-06-21T02:49:26.578Z,0
2016-06-21T02:50:26.612Z,0
2016-06-21T02:51:26.042Z,0
2016-06-21T02:52:25.434Z,0
2016-06-21T02:53:26.658Z,0
2016-06-21T02:54:27.253Z,0
2016-06-21T02:55:26.061Z,0
2016-06-21T02:56:26.686Z,0
2016-06-21T02:57:26.090Z,0
2016-06-21T02:58:24.911Z,0
2016-06-21T02:59:25.514Z,0
2016-06-21T03:00:25.532Z,0
2016-06-21T03:01:26.766Z,0
2016-06-21T03:02:26.742Z,0
2016-06-21T03:03:26.769Z,0
2016-06-21T03:04:26.177Z,0
2016-06-21T03:05:25.566Z,0
2016-06-21T03:06:26.786Z,0
2016-06-21T03:07:25.711Z,0
2016-06-21T03:08:26.829Z,0
2016-06-21T03:09:25.647Z,0
2016-06-21T03:10:25.619Z,0
2016-06-21T03:11:25.644Z,0
2016-06-21T03:12:27.455Z,0
2016-06-21T03:13:25.653Z,0
2016-06-21T03:14:26.274Z,0
2016-06-21T03:15:25.696Z,0
2016-06-21T03:16:26.297Z,0
2016-06-21T03:17:27.506Z,0
2016-06-21T03:18:26.315Z,0
2016-06-21T03:19:26.303Z,0
2016-06-21T03:20:26.932Z,0
2016-06-21T03:21:25.742Z,0
2016-06-21T03:22:26.933Z,0
2016-06-21T03:23:26.358Z,0
2016-06-21T03:24:25.162Z,0
2016-06-21T03:25:25.775Z,0
2016-06-21T03:26:26.383Z,0
2016-06-21T03:27:26.396Z,0
2016-06-21T03:28:25.219Z,0
2016-06-21T03:29:27.015Z,0
2016-06-21T03:30:25.845Z,0
2016-06-21T03:31:25.234Z,0
2016-06-21T03:32:25.836Z,0
2016-06-21T03:33:27.655Z,0
2016-06-21T03:34:26.470Z,0
2016-06-21T03:35:26.517Z,0
2016-06-21T03:36:26.483Z,0
2016-06-21T03:37:25.902Z,0
2016-06-21T03:38:25.308Z,0
2016-06-21T03:39:26.529Z,0
2016-06-21T03:40:27.716Z,0
2016-06-21T03:41:25.345Z,0
2016-06-21T03:42:27.138Z,0
2016-06-21T03:43:26.535Z,0
2016-06-21T03:44:26.553Z,0
2016-06-21T03:45:26.573Z,0
2016-06-21T03:46:25.976Z,0
2016-06-21T03:47:27.187Z,0
2016-06-21T03:48:26.020Z,0
2016-06-21T03:49:26.625Z,0
2016-06-21T03:50:26.618Z,0
2016-06-21T03:51:26.638Z,0
2016-06-21T03:52:27.839Z,0
2016-06-21T03:53:26.050Z,0
2016-06-21T03:54:27.916Z,0
2016-06-21T03:55:27.284Z,0
2016-06-21T03:56:26.100Z,0
2016-06-21T03:57:27.317Z,0
2016-06-21T03:58:25.511Z,0
2016-06-21T03:59:26.109Z,0
2016-06-21T04:00:27.343Z,0
2016-06-21T04:01:27.334Z,0
2016-06-21T04:02:27.338Z,0
2016-06-21T04:03:26.745Z,0
2016-06-21T04:04:26.756Z,0
2016-06-21T04:05:26.770Z,0
2016-06-21T04:06:26.200Z,0
2016-06-21T04:07:26.209Z,0
2016-06-21T04:08:26.824Z,0
2016-06-21T04:09:27.412Z,0
2016-06-21T04:10:27.433Z,0
2016-06-21T04:11:27.431Z,0
2016-06-21T04:12:27.453Z,0
2016-06-21T04:13:28.075Z,0
2016-06-21T04:14:27.456Z,0
2016-06-21T04:15:27.487Z,0
2016-06-21T04:16:26.267Z,0
2016-06-21T04:17:26.312Z,0
2016-06-21T04:18:26.898Z,0
2016-06-21T04:19:26.348Z,0
2016-06-21T04:20:26.935Z,0
2016-06-21T04:21:27.516Z,0
2016-06-21T04:22:26.349Z,0
2016-06-21T04:23:25.750Z,0
2016-06-21T04:24:27.558Z,0
2016-06-21T04:25:26.386Z,0
2016-06-21T04:26:26.984Z,0
2016-06-21T04:27:26.435Z,5
2016-06-21T04:28:26.416Z,5
2016-06-21T04:29:27.023Z,5
2016-06-21T04:30:28.220Z,5
2016-06-21T04:31:27.655Z,5
2016-06-21T04:32:27.658Z,5
2016-06-21T04:33:27.660Z,5
2016-06-21T04:34:27.677Z,5
2016-06-21T04:35:27.118Z,5
2016-06-21T04:36:27.701Z,5
2016-06-21T04:37:25.903Z,5
2016-06-21T04:38:26.519Z,5
2016-06-21T04:39:28.307Z,5
2016-06-21T04:40:27.737Z,5
2016-06-21T04:41:27.738Z,5
2016-06-21T04:42:27.149Z,5
2016-06-21T04:43:27.166Z,5
2016-06-21T04:44:28.377Z,5
2016-06-21T04:45:27.187Z,5
2016-06-21T04:46:27.794Z,5
2016-06-21T04:47:26.622Z,5
2016-06-21T04:48:28.394Z,5
2016-06-21T04:49:26.622Z,5
2016-06-21T04:50:26.627Z,5
2016-06-21T04:51:27.259Z,5
2016-06-21T04:52:28.453Z,5
2016-06-21T04:53:27.268Z,5
2016-06-21T04:54:27.885Z,5
2016-06-21T04:55:26.671Z,5
2016-06-21T04:56:27.303Z,5
2016-06-21T04:57:27.315Z,5
2016-06-21T04:58:27.300Z,5
2016-06-21T04:59:27.344Z,5
2016-06-21T05:00:27.337Z,10
2016-06-21T05:01:27.359Z,10
2016-06-21T05:02:27.967Z,10
2016-06-21T05:03:26.773Z,5
2016-06-21T05:04:27.358Z,5
2016-06-21T05:05:27.368Z,5
2016-06-21T05:06:26.790Z,5
2016-06-21T05:07:27.405Z,10
2016-06-21T05:08:27.398Z,10
2016-06-21T05:09:27.422Z,10
2016-06-21T05:10:27.707Z,10
2016-06-21T05:11:26.834Z,10
2016-06-21T05:12:28.058Z,10
2016-06-21T05:13:28.058Z,10
2016-06-21T05:14:27.460Z,10
2016-06-21T05:15:28.092Z,10
2016-06-21T05:16:26.876Z,10
2016-06-21T05:17:27.488Z,10
2016-06-21T05:18:28.120Z,10
2016-06-21T05:19:26.339Z,10
2016-06-21T05:20:26.926Z,10
2016-06-21T05:21:28.749Z,10
2016-06-21T05:22:27.548Z,10
2016-06-21T05:23:28.785Z,10
2016-06-21T05:24:26.990Z,10
2016-06-21T05:25:27.585Z,10
2016-06-21T05:26:26.405Z,10
2016-06-21T05:27:26.999Z,10
2016-06-21T05:28:27.617Z,10
2016-06-21T05:29:27.624Z,10
2016-06-21T05:30:27.062Z,10
2016-06-21T05:31:27.055Z,10
2016-06-21T05:32:28.260Z,10
2016-06-21T05:33:27.057Z,10
2016-06-21T05:34:28.518Z,10
2016-06-21T05:35:27.725Z,10
2016-06-21T05:36:27.707Z,10
2016-06-21T05:37:27.723Z,10
2016-06-21T05:38:28.318Z,10
2016-06-21T05:39:27.127Z,10
2016-06-21T05:40:28.338Z,10
2016-06-21T05:41:28.974Z,10
2016-06-21T05:42:27.765Z,10
2016-06-21T05:43:27.178Z,10
2016-06-21T05:44:27.761Z,10
2016-06-21T05:45:28.979Z,10
2016-06-21T05:46:27.800Z,15
2016-06-21T05:47:27.223Z,15
2016-06-21T05:48:26.615Z,15
2016-06-21T05:49:29.014Z,15
2016-06-21T05:50:29.051Z,20
2016-06-21T05:51:27.275Z,20
2016-06-21T05:52:27.251Z,20
2016-06-21T05:53:27.286Z,20
2016-06-21T05:54:27.881Z,20
2016-06-21T05:55:27.317Z,20
2016-06-21T05:56:27.898Z,20
2016-06-21T05:57:27.328Z,20
2016-06-21T05:58:28.524Z,20
2016-06-21T05:59:27.322Z,20
2016-06-21T06:00:27.354Z,20
2016-06-21T06:01:29.164Z,20
2016-06-21T06:02:28.553Z,20
2016-06-21T06:03:27.976Z,20
2016-06-21T06:04:27.986Z,20
2016-06-21T06:05:26.786Z,15
2016-06-21T06:06:28.006Z,15
2016-06-21T06:07:28.011Z,15
2016-06-21T06:08:27.477Z,15
2016-06-21T06:09:28.914Z,10
2016-06-21T06:10:28.641Z,10
2016-06-21T06:11:29.266Z,15
2016-06-21T06:12:27.466Z,10
2016-06-21T06:13:29.281Z,10
2016-06-21T06:14:28.080Z,10
2016-06-21T06:15:28.708Z,10
2016-06-21T06:16:28.702Z,10
2016-06-21T06:17:27.547Z,5
2016-06-21T06:18:26.939Z,5
2016-06-21T06:19:28.131Z,5
2016-06-21T06:20:29.348Z,5
2016-06-21T06:21:27.558Z,5
2016-06-21T06:22:27.569Z,5
2016-06-21T06:23:28.180Z,5
2016-06-21T06:24:28.784Z,5
2016-06-21T06:25:27.614Z,5
2016-06-21T06:26:28.823Z,5
2016-06-21T06:27:28.209Z,5
2016-06-21T06:28:28.830Z,5
2016-06-21T06:29:28.849Z,10
2016-06-21T06:30:27.660Z,10
2016-06-21T06:31:28.258Z,10
2016-06-21T06:32:29.455Z,10
2016-06-21T06:33:27.675Z,10
2016-06-21T06:34:27.683Z,10
2016-06-21T06:35:27.103Z,10
2016-06-21T06:36:28.884Z,10
2016-06-21T06:37:27.714Z,15
2016-06-21T06:38:29.552Z,15
2016-06-21T06:39:28.963Z,10
2016-06-21T06:40:29.530Z,10
2016-06-21T06:41:28.363Z,15
2016-06-21T06:42:27.780Z,10
2016-06-21T06:43:28.975Z,15
2016-06-21T06:44:28.979Z,10
2016-06-21T06:45:28.396Z,10
2016-06-21T06:46:27.190Z,10
2016-06-21T06:47:28.419Z,10
2016-06-21T06:48:29.006Z,10
2016-06-21T06:49:28.438Z,5
2016-06-21T06:50:29.720Z,5
2016-06-21T06:51:27.847Z,5
2016-06-21T06:52:28.451Z,5
2016-06-21T06:53:27.880Z,5
2016-06-21T06:54:27.303Z,5
2016-06-21T06:55:29.230Z,5
2016-06-21T06:56:27.328Z,5
2016-06-21T06:57:28.500Z,5
2016-06-21T06:58:29.132Z,5
2016-06-21T06:59:28.530Z,10
2016-06-21T07:00:27.953Z,5
2016-06-21T07:01:27.957Z,10
2016-06-21T07:02:28.555Z,10
2016-06-21T07:03:27.982Z,10
2016-06-21T07:04:28.587Z,10
2016-06-21T07:05:29.187Z,10
2016-06-21T07:06:28.613Z,10
2016-06-21T07:07:29.834Z,10
2016-06-21T07:08:28.079Z,10
2016-06-21T07:09:29.242Z,10
2016-06-21T07:10:29.243Z,10
2016-06-21T07:11:28.065Z,10
2016-06-21T07:12:28.658Z,10
2016-06-21T07:13:29.887Z,10
2016-06-21T07:14:29.537Z,10
2016-06-21T07:15:28.078Z,10
2016-06-21T07:16:29.315Z,5
2016-06-21T07:17:27.539Z,10
2016-06-21T07:18:28.740Z,10
2016-06-21T07:19:28.129Z,10
2016-06-21T07:20:28.741Z,10
2016-06-21T07:21:29.946Z,15
2016-06-21T07:22:28.758Z,15
2016-06-21T07:23:29.381Z,15
2016-06-21T07:24:28.775Z,15
2016-06-21T07:25:29.398Z,20
2016-06-21T07:26:28.207Z,20
2016-06-21T07:27:28.226Z,20
2016-06-21T07:28:30.042Z,15
2016-06-21T07:29:28.835Z,15
2016-06-21T07:30:28.867Z,20
2016-06-21T07:31:30.059Z,20
2016-06-21T07:32:30.111Z,25
2016-06-21T07:33:28.877Z,20
2016-06-21T07:34:28.871Z,25
2016-06-21T07:35:27.687Z,25
2016-06-21T07:36:28.322Z,25
2016-06-21T07:37:28.956Z,25
2016-06-21T07:38:30.142Z,25
2016-06-21T07:39:28.965Z,30
2016-06-21T07:40:28.972Z,30
2016-06-21T07:41:29.615Z,30
2016-06-21T07:42:28.403Z,35
2016-06-21T07:43:30.198Z,35
2016-06-21T07:44:28.409Z,40
2016-06-21T07:45:29.035Z,40
2016-06-21T07:46:30.222Z,40
2016-06-21T07:47:28.449Z,45
2016-06-21T07:48:28.450Z,45
2016-06-21T07:49:30.242Z,40
2016-06-21T07:50:29.117Z,40
2016-06-21T07:51:29.653Z,40
2016-06-21T07:52:28.839Z,45
2016-06-21T07:53:29.079Z,40
2016-06-21T07:54:28.492Z,40
2016-06-21T07:55:28.509Z,40
2016-06-21T07:56:29.102Z,45
2016-06-21T07:57:27.925Z,40
2016-06-21T07:58:29.103Z,35
2016-06-21T07:59:29.163Z,35
2016-06-21T08:00:29.730Z,35
2016-06-21T08:01:28.551Z,35
2016-06-21T08:02:28.550Z,45
2016-06-21T08:03:29.177Z,45
2016-06-21T08:04:29.783Z,45
2016-06-21T08:05:28.605Z,45
2016-06-21T08:06:30.390Z,60
2016-06-21T08:07:29.811Z,55
2016-06-21T08:08:29.815Z,45
2016-06-21T08:09:29.238Z,45
2016-06-21T08:10:28.636Z,45
2016-06-21T08:11:29.887Z,55
2016-06-21T08:12:29.276Z,50
2016-06-21T08:13:29.887Z,55
2016-06-21T08:14:28.678Z,50
2016-06-21T08:15:28.695Z,45
2016-06-21T08:16:30.500Z,35
2016-06-21T08:17:30.524Z,45
2016-06-21T08:18:29.936Z,40
2016-06-21T08:19:28.747Z,45
2016-06-21T08:20:29.361Z,50
2016-06-21T08:21:29.344Z,45
2016-06-21T08:22:28.187Z,50
2016-06-21T08:23:29.378Z,50
2016-06-21T08:24:29.391Z,45
2016-06-21T08:25:29.410Z,40
2016-06-21T08:26:29.997Z,50
2016-06-21T08:27:29.435Z,40
2016-06-21T08:28:30.062Z,45
2016-06-21T08:29:29.478Z,55
2016-06-21T08:30:29.470Z,35
2016-06-21T08:31:29.492Z,40
2016-06-21T08:32:30.089Z,50
2016-06-21T08:33:28.290Z,60
2016-06-21T08:34:28.901Z,50
2016-06-21T08:35:28.922Z,45
2016-06-21T08:36:29.530Z,50
2016-06-21T08:37:30.762Z,55
2016-06-21T08:38:28.950Z,55
2016-06-21T08:39:29.558Z,55
2016-06-21T08:40:29.570Z,55
2016-06-21T08:41:29.563Z,40
2016-06-21T08:42:29.615Z,35
2016-06-21T08:43:29.599Z,40
2016-06-21T08:44:29.613Z,45
2016-06-21T08:45:29.625Z,45
2016-06-21T08:46:30.233Z,55
2016-06-21T08:47:29.036Z,55
2016-06-21T08:48:30.255Z,45
2016-06-21T08:49:29.663Z,45
2016-06-21T08:50:30.294Z,55
2016-06-21T08:51:29.681Z,50
2016-06-21T08:52:29.693Z,35
2016-06-21T08:53:30.295Z,35
2016-06-21T08:54:29.713Z,40
2016-06-21T08:55:30.328Z,45
2016-06-21T08:56:29.732Z,50
2016-06-21T08:57:29.730Z,50
2016-06-21T08:58:30.355Z,50
2016-06-21T08:59:28.562Z,55
2016-06-21T09:00:29.774Z,50
2016-06-21T09:01:29.782Z,45
2016-06-21T09:02:29.186Z,40
2016-06-21T09:03:29.215Z,40
2016-06-21T09:04:30.394Z,50
2016-06-21T09:05:30.457Z,55
2016-06-21T09:06:29.219Z,55
2016-06-21T09:07:29.843Z,55
2016-06-21T09:08:29.971Z,50
2016-06-21T09:09:30.443Z,45
2016-06-21T09:10:30.477Z,45
2016-06-21T09:11:31.069Z,45
2016-06-21T09:12:30.491Z,40
2016-06-21T09:13:31.113Z,30
2016-06-21T09:14:30.518Z,30
2016-06-21T09:15:29.935Z,25
2016-06-21T09:16:29.942Z,25
2016-06-21T09:17:29.357Z,25
2016-06-21T09:18:29.355Z,25
2016-06-21T09:19:29.373Z,30
2016-06-21T09:20:31.182Z,35
2016-06-21T09:21:29.982Z,40
2016-06-21T09:22:30.599Z,40
2016-06-21T09:23:30.609Z,45
2016-06-21T09:24:30.014Z,45
2016-06-21T09:25:31.253Z,55
2016-06-21T09:26:30.046Z,55
2016-06-21T09:27:30.659Z,60
2016-06-21T09:28:30.070Z,55
2016-06-21T09:29:30.064Z,50
2016-06-21T09:30:30.109Z,50
2016-06-21T09:31:30.110Z,45
2016-06-21T09:32:30.107Z,45
2016-06-21T09:33:29.551Z,50
2016-06-21T09:34:28.934Z,45
2016-06-21T09:35:29.518Z,40
2016-06-21T09:36:30.763Z,30
2016-06-21T09:37:30.164Z,20
2016-06-21T09:38:30.155Z,20
2016-06-21T09:39:31.368Z,20
2016-06-21T09:40:30.811Z,20
2016-06-21T09:41:30.200Z,25
2016-06-21T09:42:29.032Z,25
2016-06-21T09:43:30.826Z,30
2016-06-21T09:44:31.425Z,35
2016-06-21T09:45:30.233Z,35
2016-06-21T09:46:30.253Z,30
2016-06-21T09:47:30.894Z,35
2016-06-21T09:48:30.275Z,40
2016-06-21T09:49:30.285Z,40
2016-06-21T09:50:29.089Z,40
2016-06-21T09:51:30.319Z,40
2016-06-21T09:52:29.754Z,35
2016-06-21T09:53:31.518Z,40
2016-06-21T09:54:29.136Z,35
2016-06-21T09:55:29.759Z,40
2016-06-21T09:56:29.750Z,35
2016-06-21T09:57:31.574Z,35
2016-06-21T09:58:31.596Z,30
2016-06-21T09:59:30.994Z,35
2016-06-21T10:00:30.996Z,35
2016-06-21T10:01:30.407Z,35
2016-06-21T10:02:30.420Z,40
2016-06-21T10:03:29.832Z,40
2016-06-21T10:04:31.658Z,45
2016-06-21T10:05:31.055Z,40
2016-06-21T10:06:30.439Z,35
2016-06-21T10:07:31.109Z,30
2016-06-21T10:08:29.889Z,35
2016-06-21T10:09:31.685Z,40
2016-06-21T10:10:31.717Z,45
2016-06-21T10:11:31.111Z,50
2016-06-21T10:12:29.382Z,55
2016-06-21T10:13:29.368Z,55
2016-06-21T10:14:31.715Z,60
2016-06-21T10:15:30.551Z,55
2016-06-21T10:16:30.567Z,55
2016-06-21T10:17:31.186Z,50
2016-06-21T10:18:30.598Z,55
2016-06-21T10:19:31.196Z,55
2016-06-21T10:20:30.641Z,50
2016-06-21T10:21:31.226Z,40
2016-06-21T10:22:30.634Z,35
2016-06-21T10:23:30.651Z,30
2016-06-21T10:24:31.247Z,25
2016-06-21T10:25:31.281Z,30
2016-06-21T10:26:30.735Z,30
2016-06-21T10:27:31.299Z,25
2016-06-21T10:28:30.687Z,25
2016-06-21T10:29:31.272Z,20
2016-06-21T10:30:31.328Z,20
2016-06-21T10:31:30.701Z,20
2016-06-21T10:32:31.917Z,25
2016-06-21T10:33:31.376Z,40
2016-06-21T10:34:30.825Z,45
2016-06-21T10:35:31.990Z,50
2016-06-21T10:36:30.759Z,50
2016-06-21T10:37:30.149Z,55
2016-06-21T10:38:30.784Z,65
2016-06-21T10:39:31.393Z,70
2016-06-21T10:40:30.200Z,75
2016-06-21T10:41:30.809Z,75
2016-06-21T10:42:31.423Z,65
2016-06-21T10:43:30.245Z,60
2016-06-21T10:44:31.448Z,60
2016-06-21T10:45:30.850Z,65
2016-06-21T10:46:30.866Z,70
2016-06-21T10:47:29.689Z,65
2016-06-21T10:48:30.288Z,65
2016-06-21T10:49:30.278Z,65
2016-06-21T10:50:30.897Z,60
2016-06-21T10:51:31.518Z,60
2016-06-21T10:52:31.526Z,60
2016-06-21T10:53:30.333Z,55
2016-06-21T10:54:32.147Z,50
2016-06-21T10:55:31.519Z,45
2016-06-21T10:56:31.577Z,40
2016-06-21T10:57:31.621Z,40
2016-06-21T10:58:29.782Z,40
2016-06-21T10:59:29.800Z,35
2016-06-21T11:00:31.013Z,35
2016-06-21T11:01:30.417Z,35
2016-06-21T11:02:31.034Z,40
2016-06-21T11:03:32.251Z,50
2016-06-21T11:04:32.241Z,55
2016-06-21T11:05:30.483Z,55
2016-06-21T11:06:31.048Z,60
2016-06-21T11:07:31.127Z,65
2016-06-21T11:08:31.077Z,70
2016-06-21T11:09:31.109Z,65
2016-06-21T11:10:31.099Z,65
2016-06-21T11:11:31.702Z,70
2016-06-21T11:12:31.724Z,70
2016-06-21T11:13:31.158Z,80
2016-06-21T11:14:31.748Z,70
2016-06-21T11:15:30.572Z,65
2016-06-21T11:16:32.367Z,60
2016-06-21T11:17:31.183Z,50
2016-06-21T11:18:31.806Z,55
2016-06-21T11:19:32.408Z,60
2016-06-21T11:20:31.828Z,60
2016-06-21T11:21:31.854Z,65
2016-06-21T11:22:31.823Z,60
2016-06-21T11:23:31.248Z,50
2016-06-21T11:24:31.280Z,50
2016-06-21T11:25:30.684Z,55
2016-06-21T11:26:30.675Z,60
2016-06-21T11:27:30.079Z,65
2016-06-21T11:28:31.913Z,70
2016-06-21T11:29:30.693Z,75
2016-06-21T11:30:31.377Z,80
2016-06-21T11:31:31.340Z,80
2016-06-21T11:32:31.324Z,75
2016-06-21T11:33:31.525Z,100
2016-06-21T11:34:31.951Z,100
2016-06-21T11:35:32.590Z,100
2016-06-21T11:36:30.212Z,100
2016-06-21T11:37:31.429Z,100
2016-06-21T11:38:31.409Z,65
2016-06-21T11:39:32.000Z,75
2016-06-21T11:40:32.048Z,95
2016-06-21T11:41:30.824Z,95
2016-06-21T11:42:30.225Z,85
2016-06-21T11:43:30.848Z,85
2016-06-21T11:44:30.838Z,75
2016-06-21T11:45:32.667Z,45
2016-06-21T11:46:30.254Z,40
2016-06-21T11:47:32.071Z,35
2016-06-21T11:48:32.707Z,40
2016-06-21T11:49:32.097Z,45
2016-06-21T11:50:32.104Z,55
2016-06-21T11:51:32.720Z,60
2016-06-21T11:52:32.097Z,55
2016-06-21T11:53:32.734Z,45
2016-06-21T11:54:31.556Z,45
2016-06-21T11:55:32.747Z,50
2016-06-21T11:56:32.229Z,60
2016-06-21T11:57:32.187Z,75
2016-06-21T11:58:31.591Z,85
2016-06-21T11:59:32.205Z,75
2016-06-21T12:00:30.406Z,65
2016-06-21T12:01:31.027Z,55
2016-06-21T12:02:31.620Z,55
2016-06-21T12:03:32.825Z,60
2016-06-21T12:04:32.842Z,65
2016-06-21T12:05:31.664Z,85
2016-06-21T12:06:31.654Z,65
2016-06-21T12:07:32.882Z,65
2016-06-21T12:08:32.320Z,80
2016-06-21T12:09:32.309Z,85
2016-06-21T12:10:31.696Z,80
2016-06-21T12:11:31.130Z,80
2016-06-21T12:12:32.359Z,65
2016-06-21T12:13:31.140Z,55
2016-06-21T12:14:31.148Z,45
2016-06-21T12:15:31.773Z,40
2016-06-21T12:16:33.010Z,35
2016-06-21T12:17:31.187Z,30
2016-06-21T12:18:31.819Z,30
2016-06-21T12:19:32.995Z,40
2016-06-21T12:20:32.419Z,50
2016-06-21T12:21:31.231Z,60
2016-06-21T12:22:33.019Z,65
2016-06-21T12:23:33.068Z,95
2016-06-21T12:24:31.867Z,55
2016-06-21T12:25:32.110Z,55
2016-06-21T12:26:31.877Z,55
2016-06-21T12:27:31.876Z,50
2016-06-21T12:28:31.899Z,75
2016-06-21T12:29:31.911Z,55
2016-06-21T12:30:33.117Z,55
2016-06-21T12:31:31.934Z,50
2016-06-21T12:32:33.135Z,55
2016-06-21T12:33:33.158Z,80
2016-06-21T12:34:31.952Z,60
2016-06-21T12:35:30.791Z,50
2016-06-21T12:36:32.588Z,85
2016-06-21T12:37:33.175Z,75
2016-06-21T12:38:32.613Z,90
2016-06-21T12:39:30.819Z,85
2016-06-21T12:40:32.010Z,85
2016-06-21T12:41:32.636Z,80
2016-06-21T12:42:33.224Z,75
2016-06-21T12:43:32.026Z,75
2016-06-21T12:44:32.657Z,75
2016-06-21T12:45:32.072Z,80
2016-06-21T12:46:33.266Z,80
2016-06-21T12:47:31.518Z,85
2016-06-21T12:48:32.172Z,90
2016-06-21T12:49:32.709Z,95
2016-06-21T12:50:32.299Z,95
2016-06-21T12:51:32.779Z,75
2016-06-21T12:52:32.735Z,65
2016-06-21T12:53:31.577Z,60
2016-06-21T12:54:32.762Z,50
2016-06-21T12:55:33.371Z,40
2016-06-21T12:56:31.615Z,35
2016-06-21T12:57:32.793Z,35
2016-06-21T12:58:32.239Z,30
2016-06-21T12:59:32.218Z,30
2016-06-21T13:00:32.218Z,25
2016-06-21T13:01:32.247Z,25
2016-06-21T13:02:32.250Z,25
2016-06-21T13:03:32.247Z,30
2016-06-21T13:04:32.255Z,30
2016-06-21T13:05:31.675Z,40
2016-06-21T13:06:32.913Z,50
2016-06-21T13:07:32.294Z,45
2016-06-21T13:08:33.054Z,50
2016-06-21T13:09:33.500Z,50
2016-06-21T13:10:32.314Z,45
2016-06-21T13:11:32.345Z,40
2016-06-21T13:12:32.947Z,40
2016-06-21T13:13:32.346Z,35
2016-06-21T13:14:32.345Z,35
2016-06-21T13:15:32.407Z,30
2016-06-21T13:16:32.382Z,30
2016-06-21T13:17:32.402Z,30
2016-06-21T13:18:33.002Z,30
2016-06-21T13:19:31.816Z,25
2016-06-21T13:20:33.023Z,20
2016-06-21T13:21:31.833Z,20
2016-06-21T13:22:33.647Z,20
2016-06-21T13:23:32.482Z,20
2016-06-21T13:24:31.857Z,25
2016-06-21T13:25:33.656Z,25
2016-06-21T13:26:31.911Z,25
2016-06-21T13:27:31.287Z,30
2016-06-21T13:28:32.498Z,30
2016-06-21T13:29:32.537Z,30
2016-06-21T13:31:33.152Z,30
2016-06-21T13:32:31.958Z,35
2016-06-21T13:33:33.747Z,45
2016-06-21T13:34:33.190Z,55
2016-06-21T13:35:33.170Z,65
2016-06-21T13:36:33.169Z,65
2016-06-21T13:37:32.622Z,70
2016-06-21T13:38:32.634Z,65
2016-06-21T13:39:33.816Z,55
2016-06-21T13:40:32.056Z,55
2016-06-21T13:41:31.445Z,50
2016-06-21T13:42:33.247Z,50
2016-06-21T13:43:33.881Z,50
2016-06-21T13:44:33.259Z,50
2016-06-21T13:45:33.275Z,50
2016-06-21T13:46:33.298Z,55
2016-06-21T13:47:32.700Z,60
2016-06-21T13:48:32.113Z,65
2016-06-21T13:49:32.713Z,65
2016-06-21T13:50:32.506Z,60
2016-06-21T13:51:32.731Z,55
2016-06-21T13:52:31.543Z,50
2016-06-21T13:53:32.173Z,50
2016-06-21T13:54:32.158Z,45
2016-06-21T13:55:33.367Z,40
2016-06-21T13:56:33.005Z,40
2016-06-21T13:57:33.382Z,40
2016-06-21T13:58:32.205Z,40
2016-06-21T13:59:32.822Z,40
2016-06-21T14:00:33.429Z,45
2016-06-21T14:01:32.827Z,50
2016-06-21T14:02:34.030Z,55
2016-06-21T14:03:33.465Z,60
2016-06-21T14:04:33.496Z,60
2016-06-21T14:05:32.857Z,55
2016-06-21T14:06:32.890Z,55
2016-06-21T14:07:34.100Z,55
2016-06-21T14:08:33.495Z,55
2016-06-21T14:09:33.509Z,60
2016-06-21T14:10:32.910Z,60
2016-06-21T14:11:32.933Z,65
2016-06-21T14:12:32.935Z,65
2016-06-21T14:13:33.542Z,65
2016-06-21T14:14:31.806Z,60
2016-06-21T14:15:33.586Z,60
2016-06-21T14:16:32.398Z,60
2016-06-21T14:17:33.585Z,60
2016-06-21T14:18:33.010Z,55
2016-06-21T14:19:34.203Z,60
2016-06-21T14:20:33.032Z,65
2016-06-21T14:21:33.047Z,60
2016-06-21T14:22:33.038Z,65
2016-06-21T14:23:33.066Z,65
2016-06-21T14:24:33.090Z,65
2016-06-21T14:25:33.071Z,70
2016-06-21T14:26:33.087Z,75
2016-06-21T14:27:33.098Z,65
2016-06-21T14:28:33.715Z,60